createdAt,value
2017-09-01T00:00:26.177Z,15.95
2017-09-01T00:01:26.501Z,15.88
2017-09-01T00:02:26.492Z,15.9
2017-09-01T00:03:26.178Z,15.84
2017-09-01T00:04:26.499Z,15.97
2017-09-01T00:05:26.496Z,15.98
2017-09-01T00:06:26.793Z,16
2017-09-01T00:07:26.794Z,16.01
2017-09-01T00:08:26.791Z,16.05
2017-09-01T00:09:26.793Z,16.08
2017-09-01T00:10:26.805Z,16.04
2017-09-01T00:11:26.492Z,16.09
2017-09-01T00:12:26.490Z,16.08
2017-09-01T00:13:26.494Z,16.08
2017-09-01T00:14:26.803Z,16.09
2017-09-01T00:15:26.180Z,16.16
2017-09-01T00:16:26.510Z,16.08
2017-09-01T00:17:26.497Z,16.1
2017-09-01T00:18:26.503Z,16.09
2017-09-01T00:19:26.501Z,16.09
2017-09-01T00:20:26.500Z,16.01
2017-09-01T00:21:26.811Z,16.05
2017-09-01T00:22:26.516Z,16.04
2017-09-01T00:23:26.512Z,16.09
2017-09-01T00:24:26.811Z,16.08
2017-09-01T00:25:26.810Z,16.05
2017-09-01T00:26:26.508Z,15.97
2017-09-01T00:27:26.533Z,15.94
2017-09-01T00:28:26.508Z,15.9
2017-09-01T00:29:26.510Z,15.91
2017-09-01T00:30:26.522Z,15.94
2017-09-01T00:31:26.511Z,15.88
2017-09-01T00:32:26.815Z,15.95
2017-09-01T00:33:26.203Z,15.92
2017-09-01T00:34:26.825Z,16.01
2017-09-01T00:35:26.513Z,16
2017-09-01T00:36:26.514Z,16.08
2017-09-01T00:37:26.517Z,16.05
2017-09-01T00:38:26.817Z,16.04
2017-09-01T00:39:26.212Z,16.04
2017-09-01T00:40:26.828Z,16.05
2017-09-01T00:41:26.815Z,16.04
2017-09-01T00:42:26.828Z,16.04
2017-09-01T00:43:26.817Z,16.05
2017-09-01T00:44:27.120Z,16.08
2017-09-01T00:45:26.822Z,16.01
2017-09-01T00:46:26.828Z,15.98
2017-09-01T00:47:26.831Z,15.95
2017-09-01T00:48:26.824Z,15.94
2017-09-01T00:49:26.832Z,15.92
2017-09-01T00:50:26.823Z,15.92
2017-09-01T00:51:26.837Z,15.98
2017-09-01T00:52:26.538Z,15.98
2017-09-01T00:53:26.839Z,15.98
2017-09-01T00:54:26.832Z,15.95
2017-09-01T00:55:26.837Z,16.04
2017-09-01T00:56:26.521Z,15.94
2017-09-01T00:57:26.531Z,16.05
2017-09-01T00:58:26.838Z,16.02
2017-09-01T00:59:26.527Z,16.12
2017-09-01T01:00:26.529Z,16.08
2017-09-01T01:01:26.541Z,16.02
2017-09-01T01:02:26.529Z,16.1
2017-09-01T01:03:26.537Z,16.12
2017-09-01T01:04:26.837Z,16.12
2017-09-01T01:05:26.529Z,16.17
2017-09-01T01:06:26.841Z,16.12
2017-09-01T01:07:26.526Z,16.17
2017-09-01T01:08:26.228Z,16.23
2017-09-01T01:09:26.840Z,16.15
2017-09-01T01:10:26.846Z,16.17
2017-09-01T01:11:26.543Z,16.15
2017-09-01T01:12:26.842Z,16.12
2017-09-01T01:13:26.846Z,16.15
2017-09-01T01:14:26.992Z,16.17
2017-09-01T01:15:26.842Z,16.16
2017-09-01T01:16:26.543Z,16.08
2017-09-01T01:17:26.540Z,16.17
2017-09-01T01:18:26.535Z,16.1
2017-09-01T01:19:26.541Z,16.1
2017-09-01T01:20:26.848Z,16.13
2017-09-01T01:21:26.842Z,16.16
2017-09-01T01:22:26.845Z,16.2
2017-09-01T01:23:26.845Z,16.2
2017-09-01T01:24:26.552Z,16.16
2017-09-01T01:25:26.848Z,16.13
2017-09-01T01:26:26.847Z,16.15
2017-09-01T01:27:26.885Z,16.16
2017-09-01T01:28:26.858Z,16.13
2017-09-01T01:29:26.544Z,16.12
2017-09-01T01:30:26.544Z,16.04
2017-09-01T01:31:26.856Z,16.09
2017-09-01T01:32:26.559Z,15.94
2017-09-01T01:33:26.555Z,15.92
2017-09-01T01:34:26.543Z,15.92
2017-09-01T01:35:26.249Z,15.9
2017-09-01T01:36:26.850Z,15.94
2017-09-01T01:37:26.552Z,15.92
2017-09-01T01:38:26.853Z,15.92
2017-09-01T01:39:26.548Z,15.95
2017-09-01T01:40:26.555Z,15.97
2017-09-01T01:41:26.550Z,15.94
2017-09-01T01:42:26.546Z,15.92
2017-09-01T01:43:26.857Z,15.9
2017-09-01T01:44:27.653Z,15.94
2017-09-01T01:45:26.559Z,15.86
2017-09-01T01:46:26.553Z,15.83
2017-09-01T01:47:26.560Z,15.86
2017-09-01T01:48:26.855Z,15.83
2017-09-01T01:49:26.857Z,15.82
2017-09-01T01:50:26.552Z,15.73
2017-09-01T01:51:26.859Z,15.76
2017-09-01T01:52:26.560Z,15.76
2017-09-01T01:53:26.569Z,15.73
2017-09-01T01:54:26.558Z,15.76
2017-09-01T01:55:26.858Z,15.76
2017-09-01T01:56:26.861Z,15.76
2017-09-01T01:57:26.861Z,15.67
2017-09-01T01:58:26.860Z,15.7
2017-09-01T01:59:26.562Z,15.83
2017-09-01T02:00:26.861Z,15.8
2017-09-01T02:01:26.559Z,15.76
2017-09-01T02:02:26.563Z,15.73
2017-09-01T02:03:26.269Z,15.79
2017-09-01T02:04:26.867Z,15.76
2017-09-01T02:05:26.889Z,15.75
2017-09-01T02:06:26.565Z,15.76
2017-09-01T02:07:26.867Z,15.75
2017-09-01T02:08:26.566Z,15.76
2017-09-01T02:09:26.560Z,15.79
2017-09-01T02:10:26.870Z,15.75
2017-09-01T02:11:26.877Z,15.68
2017-09-01T02:12:26.569Z,15.7
2017-09-01T02:13:26.565Z,15.65
2017-09-01T02:14:26.254Z,15.64
2017-09-01T02:15:28.798Z,15.61
2017-09-01T02:16:26.880Z,15.59
2017-09-01T02:17:26.873Z,15.52
2017-09-01T02:18:26.880Z,15.58
2017-09-01T02:19:26.873Z,15.62
2017-09-01T02:20:26.870Z,15.55
2017-09-01T02:21:26.570Z,15.67
2017-09-01T02:22:26.876Z,15.61
2017-09-01T02:23:26.882Z,15.59
2017-09-01T02:24:26.576Z,15.52
2017-09-01T02:25:26.587Z,15.52
2017-09-01T02:26:26.877Z,15.54
2017-09-01T02:27:26.878Z,15.58
2017-09-01T02:28:26.876Z,15.54
2017-09-01T02:29:26.889Z,15.61
2017-09-01T02:30:26.883Z,15.59
2017-09-01T02:31:26.884Z,15.58
2017-09-01T02:32:26.589Z,15.55
2017-09-01T02:33:26.876Z,15.55
2017-09-01T02:34:26.579Z,15.47
2017-09-01T02:35:26.262Z,15.54
2017-09-01T02:36:26.887Z,15.54
2017-09-01T02:37:26.888Z,15.52
2017-09-01T02:38:26.882Z,15.43
2017-09-01T02:39:26.886Z,15.42
2017-09-01T02:40:26.880Z,15.42
2017-09-01T02:41:26.884Z,15.43
2017-09-01T02:42:26.574Z,15.47
2017-09-01T02:43:26.881Z,15.46
2017-09-01T02:44:26.879Z,15.52
2017-09-01T02:45:27.830Z,15.47
2017-09-01T02:46:26.881Z,15.39
2017-09-01T02:47:26.888Z,15.43
2017-09-01T02:48:26.908Z,15.46
2017-09-01T02:49:26.882Z,15.46
2017-09-01T02:50:26.570Z,15.47
2017-09-01T02:51:26.886Z,15.37
2017-09-01T02:52:26.564Z,15.36
2017-09-01T02:53:26.887Z,15.4
2017-09-01T02:54:26.590Z,15.37
2017-09-01T02:55:26.577Z,15.42
2017-09-01T02:56:26.592Z,15.42
2017-09-01T02:57:26.574Z,15.36
2017-09-01T02:58:26.880Z,15.4
2017-09-01T02:59:26.880Z,15.46
2017-09-01T03:00:26.571Z,15.43
2017-09-01T03:01:26.889Z,15.55
2017-09-01T03:02:26.280Z,15.52
2017-09-01T03:03:26.882Z,15.57
2017-09-01T03:04:26.890Z,15.46
2017-09-01T03:05:26.577Z,15.52
2017-09-01T03:06:26.882Z,15.46
2017-09-01T03:07:26.891Z,15.4
2017-09-01T03:08:26.880Z,15.44
2017-09-01T03:09:26.873Z,15.49
2017-09-01T03:10:26.883Z,15.46
2017-09-01T03:11:26.563Z,15.47
2017-09-01T03:12:26.882Z,15.42
2017-09-01T03:13:26.274Z,15.43
2017-09-01T03:14:26.875Z,15.44
2017-09-01T03:15:26.872Z,15.46
2017-09-01T03:16:26.589Z,15.42
2017-09-01T03:17:26.580Z,15.39
2017-09-01T03:18:26.286Z,15.39
2017-09-01T03:19:26.878Z,15.39
2017-09-01T03:20:26.876Z,15.36
2017-09-01T03:21:26.897Z,15.43
2017-09-01T03:22:26.574Z,15.37
2017-09-01T03:23:26.567Z,15.36
2017-09-01T03:24:26.886Z,15.39
2017-09-01T03:25:26.875Z,15.42
2017-09-01T03:26:26.876Z,15.4
2017-09-01T03:27:26.577Z,15.49
2017-09-01T03:28:26.571Z,15.43
2017-09-01T03:29:26.875Z,15.46
2017-09-01T03:30:26.877Z,15.39
2017-09-01T03:31:26.590Z,15.42
2017-09-01T03:32:26.569Z,15.33
2017-09-01T03:33:26.583Z,15.31
2017-09-01T03:34:26.569Z,15.35
2017-09-01T03:35:26.872Z,15.39
2017-09-01T03:36:26.875Z,15.36
2017-09-01T03:37:26.874Z,15.36
2017-09-01T03:38:26.880Z,15.31
2017-09-01T03:39:26.875Z,15.28
2017-09-01T03:40:26.875Z,15.35
2017-09-01T03:41:26.279Z,15.28
2017-09-01T03:42:26.874Z,15.29
2017-09-01T03:43:26.580Z,15.28
2017-09-01T03:44:26.874Z,15.31
2017-09-01T03:45:26.878Z,15.33
2017-09-01T03:46:27.181Z,15.31
2017-09-01T03:47:26.875Z,15.37
2017-09-01T03:48:26.875Z,15.27
2017-09-01T03:49:26.875Z,15.27
2017-09-01T03:50:26.880Z,15.31
2017-09-01T03:51:26.886Z,15.24
2017-09-01T03:52:26.579Z,15.24
2017-09-01T03:53:26.586Z,15.24
2017-09-01T03:54:26.584Z,15.21
2017-09-01T03:55:26.911Z,15.35
2017-09-01T03:56:26.874Z,15.31
2017-09-01T03:57:26.587Z,15.35
2017-09-01T03:58:26.580Z,15.25
2017-09-01T03:59:26.882Z,15.18
2017-09-01T04:00:26.881Z,15.24
2017-09-01T04:01:31.788Z,15.14
2017-09-01T04:02:26.884Z,15.17
2017-09-01T04:03:26.881Z,15.18
2017-09-01T04:04:26.879Z,15.18
2017-09-01T04:05:26.875Z,15.22
2017-09-01T04:06:26.593Z,15.15
2017-09-01T04:07:26.598Z,15.24
2017-09-01T04:08:26.579Z,15.24
2017-09-01T04:09:26.875Z,15.27
2017-09-01T04:10:26.884Z,15.27
2017-09-01T04:11:26.882Z,15.27
2017-09-01T04:12:26.874Z,15.11
2017-09-01T04:13:26.596Z,15.24
2017-09-01T04:14:26.883Z,15.21
2017-09-01T04:15:26.576Z,15.14
2017-09-01T04:16:26.881Z,15.19
2017-09-01T04:17:26.887Z,15.24
2017-09-01T04:18:26.888Z,15.17
2017-09-01T04:19:26.584Z,15.1
2017-09-01T04:20:26.582Z,15.18
2017-09-01T04:21:26.888Z,15.17
2017-09-01T04:22:26.887Z,15.02
2017-09-01T04:23:26.880Z,15.02
2017-09-01T04:24:26.594Z,15.02
2017-09-01T04:25:26.886Z,15.02
2017-09-01T04:26:26.605Z,15.06
2017-09-01T04:27:26.876Z,15.18
2017-09-01T04:28:26.889Z,15.06
2017-09-01T04:29:26.877Z,15.15
2017-09-01T04:30:26.885Z,15.11
2017-09-01T04:31:26.885Z,15.19
2017-09-01T04:32:26.262Z,15.14
2017-09-01T04:33:26.589Z,15.19
2017-09-01T04:34:26.609Z,15.15
2017-09-01T04:35:26.885Z,15.22
2017-09-01T04:36:26.877Z,15.19
2017-09-01T04:37:26.573Z,15.14
2017-09-01T04:38:26.583Z,15.15
2017-09-01T04:39:26.878Z,15.24
2017-09-01T04:40:26.592Z,15.11
2017-09-01T04:41:26.912Z,15.24
2017-09-01T04:42:26.598Z,15.24
2017-09-01T04:43:26.897Z,15.24
2017-09-01T04:44:26.879Z,15.22
2017-09-01T04:45:26.884Z,15.17
2017-09-01T04:46:26.595Z,15.31
2017-09-01T04:47:26.576Z,15.25
2017-09-01T04:48:26.598Z,15.18
2017-09-01T04:49:26.884Z,15.21
2017-09-01T04:50:26.879Z,15.17
2017-09-01T04:51:26.876Z,15.27
2017-09-01T04:52:26.598Z,15.25
2017-09-01T04:53:26.883Z,15.22
2017-09-01T04:54:26.881Z,15.18
2017-09-01T04:55:26.883Z,15.21
2017-09-01T04:56:26.880Z,15.22
2017-09-01T04:57:26.878Z,15.19
2017-09-01T04:58:26.872Z,15.27
2017-09-01T04:59:26.880Z,15.27
2017-09-01T05:00:26.965Z,15.27
2017-09-01T05:01:26.580Z,15.21
2017-09-01T05:02:26.875Z,15.18
2017-09-01T05:03:26.573Z,15.15
2017-09-01T05:04:26.884Z,15.17
2017-09-01T05:05:26.595Z,15.21
2017-09-01T05:06:26.885Z,15.21
2017-09-01T05:07:26.884Z,15.1
2017-09-01T05:08:26.882Z,15.15
2017-09-01T05:09:26.574Z,15.24
2017-09-01T05:10:26.885Z,15.31
2017-09-01T05:11:26.888Z,15.31
2017-09-01T05:12:26.887Z,15.25
2017-09-01T05:13:26.886Z,15.35
2017-09-01T05:14:26.256Z,15.37
2017-09-01T05:15:26.574Z,15.37
2017-09-01T05:16:26.885Z,15.33
2017-09-01T05:17:28.681Z,15.37
2017-09-01T05:18:26.597Z,15.39
2017-09-01T05:19:26.575Z,15.39
2017-09-01T05:20:26.611Z,15.35
2017-09-01T05:21:26.588Z,15.42
2017-09-01T05:22:26.591Z,15.35
2017-09-01T05:23:26.578Z,15.44
2017-09-01T05:24:26.581Z,15.39
2017-09-01T05:25:26.586Z,15.37
2017-09-01T05:26:26.892Z,15.36
2017-09-01T05:27:26.917Z,15.37
2017-09-01T05:28:26.260Z,15.35
2017-09-01T05:29:26.641Z,15.35
2017-09-01T05:30:26.899Z,15.47
2017-09-01T05:31:26.593Z,15.39
2017-09-01T05:32:26.574Z,15.37
2017-09-01T05:33:26.884Z,15.39
2017-09-01T05:34:26.617Z,15.49
2017-09-01T05:35:26.269Z,15.35
2017-09-01T05:36:26.897Z,15.44
2017-09-01T05:37:26.605Z,15.4
2017-09-01T05:38:26.888Z,15.49
2017-09-01T05:39:26.891Z,15.43
2017-09-01T05:40:26.884Z,15.42
2017-09-01T05:41:26.602Z,15.52
2017-09-01T05:42:26.895Z,15.42
2017-09-01T05:43:26.603Z,15.46
2017-09-01T05:44:26.891Z,15.49
2017-09-01T05:45:26.890Z,15.54
2017-09-01T05:46:26.596Z,15.42
2017-09-01T05:47:28.782Z,15.44
2017-09-01T05:48:26.598Z,15.43
2017-09-01T05:49:26.598Z,15.43
2017-09-01T05:50:26.879Z,15.46
2017-09-01T05:51:26.882Z,15.44
2017-09-01T05:52:26.883Z,15.43
2017-09-01T05:53:26.923Z,15.46
2017-09-01T05:54:26.921Z,15.44
2017-09-01T05:55:26.886Z,15.42
2017-09-01T05:56:26.895Z,15.42
2017-09-01T05:57:26.882Z,15.4
2017-09-01T05:58:26.883Z,15.42
2017-09-01T05:59:26.898Z,15.51
2017-09-01T06:00:26.581Z,15.61
2017-09-01T06:01:26.596Z,15.61
2017-09-01T06:02:26.266Z,15.61
2017-09-01T06:03:26.589Z,15.61
2017-09-01T06:04:26.622Z,15.62
2017-09-01T06:05:26.604Z,15.49
2017-09-01T06:06:26.586Z,15.62
2017-09-01T06:07:26.912Z,15.55
2017-09-01T06:08:26.890Z,15.54
2017-09-01T06:09:26.582Z,15.59
2017-09-01T06:10:26.887Z,15.61
2017-09-01T06:11:26.610Z,15.59
2017-09-01T06:12:26.597Z,15.65
2017-09-01T06:13:26.594Z,15.61
2017-09-01T06:14:26.615Z,15.52
2017-09-01T06:15:26.274Z,15.64
2017-09-01T06:16:26.595Z,15.52
2017-09-01T06:17:26.886Z,15.52
2017-09-01T06:18:26.592Z,15.51
2017-09-01T06:19:26.893Z,15.59
2017-09-01T06:20:26.890Z,15.61
2017-09-01T06:21:26.274Z,15.57
2017-09-01T06:22:26.599Z,15.61
2017-09-01T06:23:26.601Z,15.62
2017-09-01T06:24:26.279Z,15.65
2017-09-01T06:25:26.618Z,15.73
2017-09-01T06:26:26.890Z,15.77
2017-09-01T06:27:26.900Z,15.7
2017-09-01T06:28:26.897Z,15.62
2017-09-01T06:29:26.892Z,15.75
2017-09-01T06:30:26.600Z,15.7
2017-09-01T06:31:26.605Z,15.76
2017-09-01T06:32:26.602Z,15.75
2017-09-01T06:33:26.609Z,15.79
2017-09-01T06:34:26.597Z,15.83
2017-09-01T06:35:26.621Z,15.83
2017-09-01T06:36:26.913Z,15.83
2017-09-01T06:37:26.595Z,15.72
2017-09-01T06:38:26.610Z,15.77
2017-09-01T06:39:26.900Z,15.77
2017-09-01T06:40:26.893Z,15.75
2017-09-01T06:41:26.598Z,15.7
2017-09-01T06:42:26.896Z,15.83
2017-09-01T06:43:26.599Z,15.72
2017-09-01T06:44:26.892Z,15.79
2017-09-01T06:45:26.901Z,15.84
2017-09-01T06:46:26.617Z,15.83
2017-09-01T06:47:26.894Z,15.86
2017-09-01T06:48:30.809Z,15.83
2017-09-01T06:49:26.287Z,15.84
2017-09-01T06:50:26.601Z,15.9
2017-09-01T06:51:26.297Z,15.94
2017-09-01T06:52:26.604Z,15.98
2017-09-01T06:53:26.604Z,15.95
2017-09-01T06:54:26.900Z,16.08
2017-09-01T06:55:26.901Z,16.09
2017-09-01T06:56:26.604Z,16.04
2017-09-01T06:57:26.615Z,16.04
2017-09-01T06:58:26.608Z,16.12
2017-09-01T06:59:26.606Z,16.1
2017-09-01T07:00:26.905Z,16.16
2017-09-01T07:01:26.598Z,16.16
2017-09-01T07:02:26.607Z,16.16
2017-09-01T07:03:26.905Z,16.16
2017-09-01T07:04:26.294Z,16.24
2017-09-01T07:05:26.625Z,16.26
2017-09-01T07:06:26.690Z,16.29
2017-09-01T07:07:26.691Z,16.12
2017-09-01T07:08:26.912Z,16.15
2017-09-01T07:09:26.909Z,16.1
2017-09-01T07:10:26.946Z,16.17
2017-09-01T07:11:26.954Z,16.15
2017-09-01T07:12:27.016Z,16.09
2017-09-01T07:13:26.915Z,16.09
2017-09-01T07:14:26.623Z,16.08
2017-09-01T07:15:26.298Z,16.15
2017-09-01T07:16:26.620Z,16.05
2017-09-01T07:17:26.945Z,16.12
2017-09-01T07:18:26.308Z,16.1
2017-09-01T07:19:26.916Z,16.04
2017-09-01T07:20:26.309Z,16.1
2017-09-01T07:21:26.632Z,16.17
2017-09-01T07:22:26.623Z,16.2
2017-09-01T07:23:26.919Z,16.35
2017-09-01T07:24:26.931Z,16.32
2017-09-01T07:25:26.643Z,16.31
2017-09-01T07:26:26.935Z,16.35
2017-09-01T07:27:26.314Z,16.28
2017-09-01T07:28:26.306Z,16.28
2017-09-01T07:29:26.945Z,16.35
2017-09-01T07:30:26.307Z,16.38
2017-09-01T07:31:26.631Z,16.33
2017-09-01T07:32:26.633Z,16.26
2017-09-01T07:33:26.659Z,16.28
2017-09-01T07:34:26.312Z,16.2
2017-09-01T07:35:26.623Z,16.31
2017-09-01T07:36:26.627Z,16.24
2017-09-01T07:37:26.647Z,16.35
2017-09-01T07:38:26.633Z,16.41
2017-09-01T07:39:26.647Z,16.42
2017-09-01T07:40:26.632Z,16.5
2017-09-01T07:41:26.314Z,16.53
2017-09-01T07:42:26.625Z,16.53
2017-09-01T07:43:26.316Z,16.5
2017-09-01T07:44:26.955Z,16.57
2017-09-01T07:45:26.940Z,16.58
2017-09-01T07:46:26.692Z,16.65
2017-09-01T07:47:26.667Z,16.64
2017-09-01T07:48:26.666Z,16.58
2017-09-01T07:49:30.682Z,16.58
2017-09-01T07:50:26.953Z,16.56
2017-09-01T07:51:26.644Z,16.51
2017-09-01T07:52:26.640Z,16.38
2017-09-01T07:53:26.637Z,16.43
2017-09-01T07:54:26.664Z,16.5
2017-09-01T07:55:26.653Z,16.5
2017-09-01T07:56:26.957Z,16.53
2017-09-01T07:57:26.645Z,16.43
2017-09-01T07:58:26.328Z,16.38
2017-09-01T07:59:26.329Z,16.35
2017-09-01T08:00:26.659Z,16.29
2017-09-01T08:01:26.960Z,16.26
2017-09-01T08:02:26.660Z,16.32
2017-09-01T08:03:26.960Z,16.32
2017-09-01T08:04:26.660Z,16.43
2017-09-01T08:05:26.666Z,16.5
2017-09-01T08:06:26.968Z,16.51
2017-09-01T08:07:26.964Z,16.64
2017-09-01T08:08:26.667Z,16.69
2017-09-01T08:09:26.338Z,16.65
2017-09-01T08:10:26.673Z,16.69
2017-09-01T08:11:26.963Z,16.69
2017-09-01T08:12:26.339Z,16.72
2017-09-01T08:13:26.666Z,16.68
2017-09-01T08:14:26.667Z,16.64
2017-09-01T08:15:26.668Z,16.64
2017-09-01T08:16:26.669Z,16.58
2017-09-01T08:17:26.358Z,16.65
2017-09-01T08:18:26.968Z,16.86
2017-09-01T08:19:26.685Z,16.89
2017-09-01T08:20:26.973Z,16.84
2017-09-01T08:21:26.680Z,16.83
2017-09-01T08:22:26.684Z,16.84
2017-09-01T08:23:26.383Z,16.75
2017-09-01T08:24:26.981Z,16.78
2017-09-01T08:25:26.697Z,16.87
2017-09-01T08:26:26.988Z,16.81
2017-09-01T08:27:26.684Z,16.79
2017-09-01T08:28:26.685Z,16.76
2017-09-01T08:29:26.691Z,16.78
2017-09-01T08:30:26.984Z,16.75
2017-09-01T08:31:26.995Z,16.68
2017-09-01T08:32:26.984Z,16.61
2017-09-01T08:33:26.995Z,16.58
2017-09-01T08:34:26.982Z,16.71
2017-09-01T08:35:26.704Z,16.71
2017-09-01T08:36:26.695Z,16.66
2017-09-01T08:37:26.990Z,16.66
2017-09-01T08:38:26.689Z,16.74
2017-09-01T08:39:26.694Z,16.71
2017-09-01T08:40:27.001Z,16.79
2017-09-01T08:41:26.996Z,16.84
2017-09-01T08:42:26.693Z,16.89
2017-09-01T08:43:26.391Z,16.86
2017-09-01T08:44:26.391Z,16.87
2017-09-01T08:45:26.698Z,16.89
2017-09-01T08:46:27.007Z,17.04
2017-09-01T08:47:27.004Z,16.99
2017-09-01T08:48:26.705Z,17.01
2017-09-01T08:49:26.393Z,17.05
2017-09-01T08:50:26.994Z,17.2
2017-09-01T08:51:27.005Z,17.2
2017-09-01T08:52:26.718Z,17.12
2017-09-01T08:53:26.717Z,17.11
2017-09-01T08:54:26.735Z,16.99
2017-09-01T08:55:27.025Z,16.96
2017-09-01T08:56:26.719Z,17.04
2017-09-01T08:57:27.009Z,17.04
2017-09-01T08:58:27.018Z,16.96
2017-09-01T08:59:26.417Z,16.96
2017-09-01T09:00:26.719Z,16.99
2017-09-01T09:01:27.018Z,16.93
2017-09-01T09:02:26.717Z,17.04
2017-09-01T09:03:27.029Z,17.01
2017-09-01T09:04:27.034Z,16.96
2017-09-01T09:05:27.024Z,16.96
2017-09-01T09:06:27.023Z,16.86
2017-09-01T09:07:27.038Z,16.89
2017-09-01T09:08:26.725Z,16.81
2017-09-01T09:09:26.415Z,16.83
2017-09-01T09:10:27.854Z,16.76
2017-09-01T09:11:27.046Z,16.86
2017-09-01T09:12:26.737Z,16.91
2017-09-01T09:13:27.041Z,16.93
2017-09-01T09:14:26.732Z,16.89
2017-09-01T09:15:27.051Z,16.89
2017-09-01T09:16:26.442Z,16.81
2017-09-01T09:17:26.423Z,16.81
2017-09-01T09:18:26.736Z,16.86
2017-09-01T09:19:26.751Z,16.9
2017-09-01T09:20:30.353Z,16.76
2017-09-01T09:21:26.755Z,16.78
2017-09-01T09:22:26.440Z,16.75
2017-09-01T09:23:26.757Z,16.89
2017-09-01T09:24:26.442Z,16.86
2017-09-01T09:25:26.746Z,16.78
2017-09-01T09:26:27.054Z,16.84
2017-09-01T09:27:26.760Z,16.97
2017-09-01T09:28:26.743Z,17.08
2017-09-01T09:29:27.086Z,17.14
2017-09-01T09:30:27.061Z,17.29
2017-09-01T09:31:26.759Z,17.33
2017-09-01T09:32:26.758Z,17.39
2017-09-01T09:33:27.076Z,17.41
2017-09-01T09:34:26.772Z,17.39
2017-09-01T09:35:26.466Z,17.59
2017-09-01T09:36:26.764Z,17.71
2017-09-01T09:37:26.765Z,17.82
2017-09-01T09:38:26.765Z,17.74
2017-09-01T09:39:26.765Z,17.89
2017-09-01T09:40:27.071Z,18.08
2017-09-01T09:41:27.075Z,18.04
2017-09-01T09:42:27.084Z,17.97
2017-09-01T09:43:26.773Z,17.8
2017-09-01T09:44:27.083Z,17.78
2017-09-01T09:45:26.491Z,17.9
2017-09-01T09:46:26.488Z,17.95
2017-09-01T09:47:26.781Z,17.79
2017-09-01T09:48:26.502Z,17.74
2017-09-01T09:49:26.781Z,17.68
2017-09-01T09:50:26.484Z,17.63
2017-09-01T09:51:28.855Z,17.56
2017-09-01T09:52:26.787Z,17.65
2017-09-01T09:53:26.804Z,17.7
2017-09-01T09:54:27.109Z,17.72
2017-09-01T09:55:27.101Z,17.72
2017-09-01T09:56:26.828Z,17.8
2017-09-01T09:57:27.123Z,17.78
2017-09-01T09:58:26.802Z,17.76
2017-09-01T09:59:26.801Z,17.74
2017-09-01T10:00:27.113Z,17.79
2017-09-01T10:01:26.813Z,17.74
2017-09-01T10:02:26.809Z,17.67
2017-09-01T10:03:26.809Z,17.6
2017-09-01T10:04:27.126Z,17.54
2017-09-01T10:05:27.140Z,17.54
2017-09-01T10:06:26.817Z,17.54
2017-09-01T10:07:27.133Z,17.54
2017-09-01T10:08:26.822Z,17.65
2017-09-01T10:09:26.825Z,17.72
2017-09-01T10:10:27.146Z,17.74
2017-09-01T10:11:26.842Z,17.79
2017-09-01T10:12:26.838Z,17.74
2017-09-01T10:13:26.830Z,17.72
2017-09-01T10:14:27.143Z,17.79
2017-09-01T10:15:26.841Z,17.82
2017-09-01T10:16:26.835Z,17.74
2017-09-01T10:17:26.837Z,17.8
2017-09-01T10:18:26.840Z,17.86
2017-09-01T10:19:26.847Z,17.82
2017-09-01T10:20:27.152Z,17.8
2017-09-01T10:21:28.107Z,17.76
2017-09-01T10:22:27.157Z,17.74
2017-09-01T10:23:27.161Z,17.7
2017-09-01T10:24:27.164Z,17.7
2017-09-01T10:25:26.882Z,17.79
2017-09-01T10:26:26.553Z,17.92
2017-09-01T10:27:26.857Z,17.97
2017-09-01T10:28:27.171Z,17.92
2017-09-01T10:29:27.176Z,18.05
2017-09-01T10:30:26.864Z,18.11
2017-09-01T10:31:27.178Z,18.13
2017-09-01T10:32:27.177Z,18.22
2017-09-01T10:33:26.873Z,18.2
2017-09-01T10:34:26.887Z,18.13
2017-09-01T10:35:26.883Z,18.04
2017-09-01T10:36:26.882Z,18.04
2017-09-01T10:37:27.202Z,17.92
2017-09-01T10:38:26.884Z,17.89
2017-09-01T10:39:26.607Z,17.71
2017-09-01T10:40:26.589Z,17.71
2017-09-01T10:41:26.888Z,17.6
2017-09-01T10:42:26.896Z,17.68
2017-09-01T10:43:26.602Z,17.72
2017-09-01T10:44:27.202Z,17.78
2017-09-01T10:45:27.223Z,17.82
2017-09-01T10:46:26.908Z,17.94
2017-09-01T10:47:27.221Z,17.89
2017-09-01T10:48:26.901Z,18.07
2017-09-01T10:49:26.621Z,18.05
2017-09-01T10:50:26.913Z,18.31
2017-09-01T10:51:26.931Z,18.41
2017-09-01T10:52:27.221Z,18.5
2017-09-01T10:53:27.249Z,18.62
2017-09-01T10:54:26.616Z,18.52
2017-09-01T10:55:27.228Z,18.41
2017-09-01T10:56:26.627Z,18.59
2017-09-01T10:57:26.923Z,18.49
2017-09-01T10:58:27.243Z,18.53
2017-09-01T10:59:26.929Z,18.66
2017-09-01T11:00:26.637Z,18.52
2017-09-01T11:01:27.244Z,18.68
2017-09-01T11:02:26.936Z,18.7
2017-09-01T11:03:26.940Z,18.63
2017-09-01T11:04:26.943Z,18.62
2017-09-01T11:05:26.951Z,18.7
2017-09-01T11:06:27.298Z,18.52
2017-09-01T11:07:26.966Z,18.62
2017-09-01T11:08:26.956Z,18.6
2017-09-01T11:09:26.960Z,18.58
2017-09-01T11:10:27.268Z,18.47
2017-09-01T11:11:26.970Z,18.33
2017-09-01T11:12:26.661Z,18.34
2017-09-01T11:13:26.970Z,18.28
2017-09-01T11:14:27.289Z,18.35
2017-09-01T11:15:26.983Z,18.4
2017-09-01T11:16:27.284Z,18.4
2017-09-01T11:17:26.976Z,18.35
2017-09-01T11:18:26.678Z,18.4
2017-09-01T11:19:27.302Z,18.58
2017-09-01T11:20:26.981Z,18.58
2017-09-01T11:21:26.994Z,18.49
2017-09-01T11:22:28.897Z,18.38
2017-09-01T11:23:26.985Z,18.47
2017-09-01T11:24:27.303Z,18.4
2017-09-01T11:25:27.316Z,18.34
2017-09-01T11:26:27.009Z,18.23
2017-09-01T11:27:27.306Z,18.2
2017-09-01T11:28:27.339Z,18.08
2017-09-01T11:29:27.322Z,18.08
2017-09-01T11:30:27.025Z,18.11
2017-09-01T11:31:27.330Z,18.16
2017-09-01T11:32:27.009Z,18.05
2017-09-01T11:33:27.031Z,18.11
2017-09-01T11:34:27.011Z,18.16
2017-09-01T11:35:27.323Z,18.1
2017-09-01T11:36:26.726Z,18.35
2017-09-01T11:38:26.719Z,18.2
2017-09-01T11:39:26.728Z,18.22
2017-09-01T11:40:27.341Z,18.2
2017-09-01T11:41:26.748Z,18.2
2017-09-01T11:42:27.034Z,18.31
2017-09-01T11:43:27.357Z,18.22
2017-09-01T11:44:27.042Z,18.18
2017-09-01T11:45:27.351Z,18.15
2017-09-01T11:46:27.041Z,18.16
2017-09-01T11:47:27.347Z,18.19
2017-09-01T11:48:27.351Z,18.19
2017-09-01T11:49:27.351Z,18.16
2017-09-01T11:50:27.352Z,18.18
2017-09-01T11:51:26.781Z,18.04
2017-09-01T11:52:28.202Z,18.08
2017-09-01T11:53:27.060Z,18.07
2017-09-01T11:54:27.070Z,18.01
2017-09-01T11:55:27.053Z,18.16
2017-09-01T11:56:27.062Z,18.11
2017-09-01T11:57:27.064Z,18.2
2017-09-01T11:58:27.062Z,18.25
2017-09-01T11:59:27.374Z,18.33
2017-09-01T12:00:27.374Z,18.4
2017-09-01T12:01:27.378Z,18.26
2017-09-01T12:02:27.385Z,18.29
2017-09-01T12:03:26.782Z,18.33
2017-09-01T12:04:27.072Z,18.33
2017-09-01T12:05:27.077Z,18.4
2017-09-01T12:06:26.784Z,18.33
2017-09-01T12:07:27.386Z,18.41
2017-09-01T12:08:27.081Z,18.43
2017-09-01T12:09:27.088Z,18.38
2017-09-01T12:10:26.781Z,18.56
2017-09-01T12:11:27.087Z,18.71
2017-09-01T12:12:27.090Z,18.75
2017-09-01T12:13:27.109Z,18.84
2017-09-01T12:14:27.403Z,18.96
2017-09-01T12:15:27.405Z,18.92
2017-09-01T12:16:27.099Z,19.04
2017-09-01T12:17:27.425Z,18.99
2017-09-01T12:18:26.819Z,18.93
2017-09-01T12:19:26.829Z,18.88
2017-09-01T12:20:27.419Z,18.75
2017-09-01T12:21:27.112Z,18.68
2017-09-01T12:22:27.430Z,18.66
2017-09-01T12:23:27.429Z,18.58
2017-09-01T12:24:26.823Z,18.49
2017-09-01T12:25:27.427Z,18.56
2017-09-01T12:26:27.124Z,18.65
2017-09-01T12:27:27.128Z,18.73
2017-09-01T12:28:26.818Z,18.86
2017-09-01T12:29:27.139Z,18.95
2017-09-01T12:30:26.830Z,18.96
2017-09-01T12:31:27.143Z,18.96
2017-09-01T12:32:27.137Z,18.92
2017-09-01T12:33:27.149Z,18.99
2017-09-01T12:34:27.155Z,18.95
2017-09-01T12:35:27.462Z,19.02
2017-09-01T12:36:27.148Z,18.95
2017-09-01T12:37:27.460Z,18.9
2017-09-01T12:38:30.551Z,18.89
2017-09-01T12:39:27.154Z,18.92
2017-09-01T12:40:27.464Z,18.83
2017-09-01T12:41:27.161Z,18.83
2017-09-01T12:42:27.474Z,18.83
2017-09-01T12:43:27.169Z,18.86
2017-09-01T12:44:27.490Z,18.9
2017-09-01T12:45:27.546Z,18.93
2017-09-01T12:46:27.180Z,18.93
2017-09-01T12:47:27.195Z,18.95
2017-09-01T12:48:27.201Z,18.84
2017-09-01T12:49:27.612Z,18.68
2017-09-01T12:50:27.496Z,18.6
2017-09-01T12:51:26.877Z,18.59
2017-09-01T12:52:27.186Z,18.68
2017-09-01T12:53:32.705Z,18.73
2017-09-01T12:54:27.200Z,18.92
2017-09-01T12:55:27.203Z,19.02
2017-09-01T12:56:26.891Z,19